sensor_id;sensor_type;location;lat;lon;timestamp;P1;durP1;ratioP1;P2;durP2;ratioP2
59856;SDS011;45733;52.668;6.860;2022-11-15T00:00:40;0.60;;;0.60;;
59856;SDS011;45733;52.668;6.860;2022-11-15T00:03:06;0.70;;;0.70;;
59856;SDS011;45733;52.668;6.860;2022-11-15T00:05:34;0.60;;;0.60;;
59856;SDS011;45733;52.668;6.860;2022-11-15T00:08:01;0.70;;;0.70;;
59856;SDS011;45733;52.668;6.860;2022-11-15T00:10:27;0.60;;;0.60;;
59856;SDS011;45733;52.668;6.860;2022-11-15T00:12:52;0.60;;;0.60;;
59856;SDS011;45733;52.668;6.860;2022-11-15T00:15:18;0.68;;;0.68;;
59856;SDS011;45733;52.668;6.860;2022-11-15T00:17:44;0.60;;;0.60;;
59856;SDS011;45733;52.668;6.860;2022-11-15T00:20:14;0.60;;;0.60;;
59856;SDS011;45733;52.668;6.860;2022-11-15T00:22:40;0.60;;;0.60;;
59856;SDS011;45733;52.668;6.860;2022-11-15T00:25:06;0.60;;;0.60;;
59856;SDS011;45733;52.668;6.860;2022-11-15T00:27:32;0.60;;;0.60;;
59856;SDS011;45733;52.668;6.860;2022-11-15T00:29:57;0.70;;;0.70;;
59856;SDS011;45733;52.668;6.860;2022-11-15T00:32:23;0.70;;;0.70;;
59856;SDS011;45733;52.668;6.860;2022-11-15T00:34:49;0.60;;;0.60;;
59856;SDS011;45733;52.668;6.860;2022-11-15T00:37:15;0.60;;;0.60;;
59856;SDS011;45733;52.668;6.860;2022-11-15T00:39:41;0.60;;;0.60;;
59856;SDS011;45733;52.668;6.860;2022-11-15T00:42:06;0.70;;;0.70;;
59856;SDS011;45733;52.668;6.860;2022-11-15T00:44:32;0.60;;;0.60;;
59856;SDS011;45733;52.668;6.860;2022-11-15T00:46:58;0.63;;;0.63;;
59856;SDS011;45733;52.668;6.860;2022-11-15T00:49:24;0.70;;;0.70;;
59856;SDS011;45733;52.668;6.860;2022-11-15T00:51:50;0.60;;;0.60;;
59856;SDS011;45733;52.668;6.860;2022-11-15T00:54:16;0.60;;;0.60;;
59856;SDS011;45733;52.668;6.860;2022-11-15T00:56:41;0.70;;;0.70;;
59856;SDS011;45733;52.668;6.860;2022-11-15T00:59:07;0.60;;;0.60;;
59856;SDS011;45733;52.668;6.860;2022-11-15T01:01:33;0.60;;;0.60;;
59856;SDS011;45733;52.668;6.860;2022-11-15T01:03:59;0.60;;;0.60;;
59856;SDS011;45733;52.668;6.860;2022-11-15T01:06:25;0.60;;;0.60;;
59856;SDS011;45733;52.668;6.860;2022-11-15T01:08:50;0.60;;;0.60;;
59856;SDS011;45733;52.668;6.860;2022-11-15T01:11:16;0.70;;;0.70;;
59856;SDS011;45733;52.668;6.860;2022-11-15T01:13:42;0.65;;;0.65;;
59856;SDS011;45733;52.668;6.860;2022-11-15T01:16:09;0.60;;;0.60;;
59856;SDS011;45733;52.668;6.860;2022-11-15T01:18:39;0.60;;;0.60;;
59856;SDS011;45733;52.668;6.860;2022-11-15T01:21:07;0.60;;;0.60;;
59856;SDS011;45733;52.668;6.860;2022-11-15T01:23:37;0.60;;;0.60;;
59856;SDS011;45733;52.668;6.860;2022-11-15T01:26:04;0.60;;;0.60;;
59856;SDS011;45733;52.668;6.860;2022-11-15T01:28:32;0.60;;;0.60;;
59856;SDS011;45733;52.668;6.860;2022-11-15T01:30:59;0.70;;;0.70;;
59856;SDS011;45733;52.668;6.860;2022-11-15T01:33:26;0.70;;;0.70;;
59856;SDS011;45733;52.668;6.860;2022-11-15T01:35:53;0.70;;;0.70;;
59856;SDS011;45733;52.668;6.860;2022-11-15T01:38:19;0.70;;;0.70;;
59856;SDS011;45733;52.668;6.860;2022-11-15T01:40:44;0.60;;;0.60;;
59856;SDS011;45733;52.668;6.860;2022-11-15T01:43:26;0.60;;;0.60;;
59856;SDS011;45733;52.668;6.860;2022-11-15T01:46:19;0.70;;;0.70;;
59856;SDS011;45733;52.668;6.860;2022-11-15T01:48:52;0.60;;;0.60;;
59856;SDS011;45733;52.668;6.860;2022-11-15T01:51:20;0.70;;;0.70;;
59856;SDS011;45733;52.668;6.860;2022-11-15T01:53:49;0.60;;;0.60;;
59856;SDS011;45733;52.668;6.860;2022-11-15T01:56:20;0.70;;;0.70;;
59856;SDS011;45733;52.668;6.860;2022-11-15T01:58:49;0.68;;;0.68;;
59856;SDS011;45733;52.668;6.860;2022-11-15T02:01:16;0.70;;;0.70;;
59856;SDS011;45733;52.668;6.860;2022-11-15T02:03:46;0.70;;;0.70;;
59856;SDS011;45733;52.668;6.860;2022-11-15T02:06:21;0.60;;;0.60;;
59856;SDS011;45733;52.668;6.860;2022-11-15T02:08:48;0.60;;;0.60;;
59856;SDS011;45733;52.668;6.860;2022-11-15T02:11:14;0.60;;;0.60;;
59856;SDS011;45733;52.668;6.860;2022-11-15T02:13:43;0.70;;;0.70;;
59856;SDS011;45733;52.668;6.860;2022-11-15T02:19:27;0.60;;;0.60;;
59856;SDS011;45733;52.668;6.860;2022-11-15T02:27:38;0.70;;;0.70;;
59856;SDS011;45733;52.668;6.860;2022-11-15T02:41:13;0.70;;;0.70;;
59856;SDS011;45733;52.668;6.860;2022-11-15T02:43:54;0.70;;;0.70;;
59856;SDS011;45733;52.668;6.860;2022-11-15T02:46:31;0.60;;;0.60;;
59856;SDS011;45733;52.668;6.860;2022-11-15T02:49:24;0.60;;;0.60;;
59856;SDS011;45733;52.668;6.860;2022-11-15T02:51:54;0.70;;;0.70;;
59856;SDS011;45733;52.668;6.860;2022-11-15T02:54:24;0.60;;;0.60;;
59856;SDS011;45733;52.668;6.860;2022-11-15T02:56:54;0.60;;;0.60;;
59856;SDS011;45733;52.668;6.860;2022-11-15T02:59:39;0.60;;;0.60;;
59856;SDS011;45733;52.668;6.860;2022-11-15T03:07:47;0.60;;;0.60;;
59856;SDS011;45733;52.668;6.860;2022-11-15T03:16:20;0.60;;;0.60;;
59856;SDS011;45733;52.668;6.860;2022-11-15T03:18:54;0.60;;;0.60;;
59856;SDS011;45733;52.668;6.860;2022-11-15T03:21:25;0.60;;;0.60;;
59856;SDS011;45733;52.668;6.860;2022-11-15T03:23:53;0.60;;;0.60;;
59856;SDS011;45733;52.668;6.860;2022-11-15T03:26:22;0.60;;;0.60;;
59856;SDS011;45733;52.668;6.860;2022-11-15T03:28:55;0.60;;;0.60;;
59856;SDS011;45733;52.668;6.860;2022-11-15T03:31:26;0.60;;;0.60;;
59856;SDS011;45733;52.668;6.860;2022-11-15T03:34:13;0.60;;;0.60;;
59856;SDS011;45733;52.668;6.860;2022-11-15T03:36:43;0.60;;;0.60;;
59856;SDS011;45733;52.668;6.860;2022-11-15T03:39:10;0.55;;;0.55;;
59856;SDS011;45733;52.668;6.860;2022-11-15T03:41:40;0.60;;;0.60;;
59856;SDS011;45733;52.668;6.860;2022-11-15T03:47:08;0.60;;;0.60;;
59856;SDS011;45733;52.668;6.860;2022-11-15T03:49:40;0.60;;;0.60;;
59856;SDS011;45733;52.668;6.860;2022-11-15T03:52:10;0.60;;;0.60;;
59856;SDS011;45733;52.668;6.860;2022-11-15T03:54:44;0.60;;;0.60;;
59856;SDS011;45733;52.668;6.860;2022-11-15T03:57:17;0.60;;;0.60;;
59856;SDS011;45733;52.668;6.860;2022-11-15T03:59:43;0.60;;;0.60;;
59856;SDS011;45733;52.668;6.860;2022-11-15T04:02:09;0.60;;;0.60;;
59856;SDS011;45733;52.668;6.860;2022-11-15T04:04:35;0.60;;;0.60;;
59856;SDS011;45733;52.668;6.860;2022-11-15T04:07:01;0.60;;;0.60;;
59856;SDS011;45733;52.668;6.860;2022-11-15T04:09:26;0.60;;;0.60;;
59856;SDS011;45733;52.668;6.860;2022-11-15T04:11:52;0.60;;;0.60;;
59856;SDS011;45733;52.668;6.860;2022-11-15T04:14:18;0.52;;;0.52;;
59856;SDS011;45733;52.668;6.860;2022-11-15T04:16:43;0.60;;;0.60;;
59856;SDS011;45733;52.668;6.860;2022-11-15T04:19:09;0.60;;;0.60;;
59856;SDS011;45733;52.668;6.860;2022-11-15T04:24:38;0.63;;;0.63;;
59856;SDS011;45733;52.668;6.860;2022-11-15T04:27:03;0.60;;;0.60;;
59856;SDS011;45733;52.668;6.860;2022-11-15T04:29:29;0.60;;;0.60;;
59856;SDS011;45733;52.668;6.860;2022-11-15T04:32:02;0.60;;;0.60;;
59856;SDS011;45733;52.668;6.860;2022-11-15T04:34:28;0.60;;;0.60;;
59856;SDS011;45733;52.668;6.860;2022-11-15T04:36:54;0.60;;;0.60;;
59856;SDS011;45733;52.668;6.860;2022-11-15T04:39:39;0.60;;;0.60;;
59856;SDS011;45733;52.668;6.860;2022-11-15T04:42:05;0.60;;;0.60;;
59856;SDS011;45733;52.668;6.860;2022-11-15T04:44:31;0.60;;;0.60;;
59856;SDS011;45733;52.668;6.860;2022-11-15T04:46:57;0.60;;;0.60;;
59856;SDS011;45733;52.668;6.860;2022-11-15T04:49:23;0.60;;;0.60;;
59856;SDS011;45733;52.668;6.860;2022-11-15T04:51:48;0.60;;;0.60;;
59856;SDS011;45733;52.668;6.860;2022-11-15T04:54:14;0.60;;;0.60;;
59856;SDS011;45733;52.668;6.860;2022-11-15T04:56:40;0.50;;;0.50;;
59856;SDS011;45733;52.668;6.860;2022-11-15T04:59:06;0.60;;;0.60;;
59856;SDS011;45733;52.668;6.860;2022-11-15T05:01:31;0.60;;;0.60;;
59856;SDS011;45733;52.668;6.860;2022-11-15T05:03:57;0.60;;;0.60;;
59856;SDS011;45733;52.668;6.860;2022-11-15T05:06:58;0.60;;;0.60;;
59856;SDS011;45733;52.668;6.860;2022-11-15T05:09:27;0.60;;;0.60;;
59856;SDS011;45733;52.668;6.860;2022-11-15T05:11:53;0.60;;;0.60;;
59856;SDS011;45733;52.668;6.860;2022-11-15T05:14:19;0.60;;;0.60;;
59856;SDS011;45733;52.668;6.860;2022-11-15T05:16:44;0.60;;;0.60;;
59856;SDS011;45733;52.668;6.860;2022-11-15T05:19:10;0.60;;;0.60;;
59856;SDS011;45733;52.668;6.860;2022-11-15T05:21:36;0.60;;;0.60;;
59856;SDS011;45733;52.668;6.860;2022-11-15T05:24:02;0.60;;;0.60;;
59856;SDS011;45733;52.668;6.860;2022-11-15T05:26:28;0.60;;;0.60;;
59856;SDS011;45733;52.668;6.860;2022-11-15T05:28:55;0.60;;;0.60;;
59856;SDS011;45733;52.668;6.860;2022-11-15T05:31:22;0.60;;;0.60;;
59856;SDS011;45733;52.668;6.860;2022-11-15T05:33:55;0.60;;;0.60;;
59856;SDS011;45733;52.668;6.860;2022-11-15T05:39:07;0.60;;;0.60;;
59856;SDS011;45733;52.668;6.860;2022-11-15T05:41:35;0.60;;;0.60;;
59856;SDS011;45733;52.668;6.860;2022-11-15T05:44:05;0.60;;;0.60;;
59856;SDS011;45733;52.668;6.860;2022-11-15T05:46:34;0.60;;;0.60;;
59856;SDS011;45733;52.668;6.860;2022-11-15T05:49:03;0.60;;;0.60;;
59856;SDS011;45733;52.668;6.860;2022-11-15T05:51:34;0.60;;;0.60;;
59856;SDS011;45733;52.668;6.860;2022-11-15T05:54:00;0.60;;;0.60;;
59856;SDS011;45733;52.668;6.860;2022-11-15T05:56:27;0.60;;;0.60;;
59856;SDS011;45733;52.668;6.860;2022-11-15T05:58:54;0.60;;;0.60;;
59856;SDS011;45733;52.668;6.860;2022-11-15T06:01:22;0.60;;;0.60;;
59856;SDS011;45733;52.668;6.860;2022-11-15T06:03:48;0.60;;;0.60;;
59856;SDS011;45733;52.668;6.860;2022-11-15T06:06:14;0.60;;;0.60;;
59856;SDS011;45733;52.668;6.860;2022-11-15T06:08:55;0.60;;;0.60;;
59856;SDS011;45733;52.668;6.860;2022-11-15T06:11:21;0.60;;;0.60;;
59856;SDS011;45733;52.668;6.860;2022-11-15T06:13:47;0.50;;;0.50;;
59856;SDS011;45733;52.668;6.860;2022-11-15T06:16:12;0.60;;;0.60;;
59856;SDS011;45733;52.668;6.860;2022-11-15T06:18:38;0.57;;;0.57;;
59856;SDS011;45733;52.668;6.860;2022-11-15T06:21:04;0.60;;;0.60;;
59856;SDS011;45733;52.668;6.860;2022-11-15T06:23:33;0.57;;;0.57;;
59856;SDS011;45733;52.668;6.860;2022-11-15T06:26:00;0.50;;;0.50;;
59856;SDS011;45733;52.668;6.860;2022-11-15T06:28:30;0.60;;;0.60;;
59856;SDS011;45733;52.668;6.860;2022-11-15T06:31:08;0.60;;;0.60;;
59856;SDS011;45733;52.668;6.860;2022-11-15T06:33:35;0.60;;;0.60;;
59856;SDS011;45733;52.668;6.860;2022-11-15T06:36:02;0.50;;;0.50;;
59856;SDS011;45733;52.668;6.860;2022-11-15T06:38:29;0.60;;;0.60;;
59856;SDS011;45733;52.668;6.860;2022-11-15T06:41:00;0.60;;;0.60;;
59856;SDS011;45733;52.668;6.860;2022-11-15T06:43:30;0.60;;;0.60;;
59856;SDS011;45733;52.668;6.860;2022-11-15T06:46:00;0.60;;;0.60;;
59856;SDS011;45733;52.668;6.860;2022-11-15T06:48:26;0.60;;;0.60;;
59856;SDS011;45733;52.668;6.860;2022-11-15T06:50:53;0.60;;;0.60;;
59856;SDS011;45733;52.668;6.860;2022-11-15T06:53:20;0.55;;;0.55;;
59856;SDS011;45733;52.668;6.860;2022-11-15T06:55:46;0.50;;;0.50;;
59856;SDS011;45733;52.668;6.860;2022-11-15T06:58:12;0.55;;;0.55;;
59856;SDS011;45733;52.668;6.860;2022-11-15T07:00:38;0.60;;;0.60;;
59856;SDS011;45733;52.668;6.860;2022-11-15T07:03:04;0.60;;;0.60;;
59856;SDS011;45733;52.668;6.860;2022-11-15T07:05:30;0.60;;;0.60;;
59856;SDS011;45733;52.668;6.860;2022-11-15T07:07:56;0.52;;;0.52;;
59856;SDS011;45733;52.668;6.860;2022-11-15T07:10:23;0.60;;;0.60;;
59856;SDS011;45733;52.668;6.860;2022-11-15T07:12:50;0.60;;;0.60;;
59856;SDS011;45733;52.668;6.860;2022-11-15T07:15:17;0.60;;;0.60;;
59856;SDS011;45733;52.668;6.860;2022-11-15T07:17:44;0.57;;;0.57;;
59856;SDS011;45733;52.668;6.860;2022-11-15T07:20:10;0.60;;;0.60;;
59856;SDS011;45733;52.668;6.860;2022-11-15T07:22:38;0.60;;;0.60;;
59856;SDS011;45733;52.668;6.860;2022-11-15T07:25:07;0.60;;;0.60;;
59856;SDS011;45733;52.668;6.860;2022-11-15T07:27:34;0.60;;;0.60;;
59856;SDS011;45733;52.668;6.860;2022-11-15T07:30:00;0.60;;;0.60;;
59856;SDS011;45733;52.668;6.860;2022-11-15T07:32:26;0.60;;;0.60;;
59856;SDS011;45733;52.668;6.860;2022-11-15T07:34:52;0.57;;;0.57;;
59856;SDS011;45733;52.668;6.860;2022-11-15T07:37:17;0.50;;;0.50;;
59856;SDS011;45733;52.668;6.860;2022-11-15T07:39:43;0.60;;;0.60;;
59856;SDS011;45733;52.668;6.860;2022-11-15T07:42:09;0.60;;;0.60;;
59856;SDS011;45733;52.668;6.860;2022-11-15T07:44:54;0.60;;;0.60;;
59856;SDS011;45733;52.668;6.860;2022-11-15T07:47:20;0.50;;;0.50;;
59856;SDS011;45733;52.668;6.860;2022-11-15T07:49:46;0.60;;;0.60;;
59856;SDS011;45733;52.668;6.860;2022-11-15T07:52:18;0.60;;;0.60;;
59856;SDS011;45733;52.668;6.860;2022-11-15T07:55:04;0.60;;;0.60;;
59856;SDS011;45733;52.668;6.860;2022-11-15T07:57:36;0.50;;;0.50;;
59856;SDS011;45733;52.668;6.860;2022-11-15T08:00:03;0.52;;;0.52;;
59856;SDS011;45733;52.668;6.860;2022-11-15T08:02:30;0.50;;;0.50;;
59856;SDS011;45733;52.668;6.860;2022-11-15T08:04:56;0.50;;;0.50;;
59856;SDS011;45733;52.668;6.860;2022-11-15T08:07:22;0.60;;;0.60;;
59856;SDS011;45733;52.668;6.860;2022-11-15T08:09:47;0.60;;;0.60;;
59856;SDS011;45733;52.668;6.860;2022-11-15T08:12:18;0.60;;;0.60;;
59856;SDS011;45733;52.668;6.860;2022-11-15T08:14:45;0.50;;;0.50;;
59856;SDS011;45733;52.668;6.860;2022-11-15T08:17:10;0.60;;;0.60;;
59856;SDS011;45733;52.668;6.860;2022-11-15T08:19:36;0.60;;;0.60;;
59856;SDS011;45733;52.668;6.860;2022-11-15T08:22:07;0.60;;;0.60;;
59856;SDS011;45733;52.668;6.860;2022-11-15T08:24:33;0.60;;;0.60;;
59856;SDS011;45733;52.668;6.860;2022-11-15T08:26:59;0.60;;;0.60;;
59856;SDS011;45733;52.668;6.860;2022-11-15T08:29:25;0.57;;;0.57;;
59856;SDS011;45733;52.668;6.860;2022-11-15T08:31:51;0.60;;;0.60;;
59856;SDS011;45733;52.668;6.860;2022-11-15T08:34:20;0.60;;;0.60;;
59856;SDS011;45733;52.668;6.860;2022-11-15T08:36:46;0.50;;;0.50;;
59856;SDS011;45733;52.668;6.860;2022-11-15T08:39:12;0.60;;;0.60;;
59856;SDS011;45733;52.668;6.860;2022-11-15T08:41:38;0.57;;;0.57;;
59856;SDS011;45733;52.668;6.860;2022-11-15T08:44:04;0.60;;;0.60;;
59856;SDS011;45733;52.668;6.860;2022-11-15T08:46:39;0.60;;;0.60;;
59856;SDS011;45733;52.668;6.860;2022-11-15T08:49:14;0.60;;;0.60;;
59856;SDS011;45733;52.668;6.860;2022-11-15T08:51:42;0.50;;;0.50;;
59856;SDS011;45733;52.668;6.860;2022-11-15T08:54:11;0.52;;;0.52;;
59856;SDS011;45733;52.668;6.860;2022-11-15T08:56:52;0.60;;;0.60;;
59856;SDS011;45733;52.668;6.860;2022-11-15T08:59:20;0.60;;;0.60;;
59856;SDS011;45733;52.668;6.860;2022-11-15T09:01:53;0.50;;;0.50;;
59856;SDS011;45733;52.668;6.860;2022-11-15T09:04:19;0.60;;;0.60;;
59856;SDS011;45733;52.668;6.860;2022-11-15T09:06:56;0.60;;;0.60;;
59856;SDS011;45733;52.668;6.860;2022-11-15T09:09:21;0.50;;;0.50;;
59856;SDS011;45733;52.668;6.860;2022-11-15T09:11:50;0.60;;;0.60;;
59856;SDS011;45733;52.668;6.860;2022-11-15T09:14:16;0.50;;;0.50;;
59856;SDS011;45733;52.668;6.860;2022-11-15T09:16:42;0.50;;;0.50;;
59856;SDS011;45733;52.668;6.860;2022-11-15T09:19:07;0.50;;;0.50;;
59856;SDS011;45733;52.668;6.860;2022-11-15T09:21:33;0.60;;;0.60;;
59856;SDS011;45733;52.668;6.860;2022-11-15T09:23:59;0.50;;;0.50;;
59856;SDS011;45733;52.668;6.860;2022-11-15T09:26:25;0.50;;;0.50;;
59856;SDS011;45733;52.668;6.860;2022-11-15T09:28:51;0.50;;;0.50;;
59856;SDS011;45733;52.668;6.860;2022-11-15T09:31:17;0.50;;;0.50;;
59856;SDS011;45733;52.668;6.860;2022-11-15T09:33:43;0.50;;;0.50;;
59856;SDS011;45733;52.668;6.860;2022-11-15T09:36:10;0.50;;;0.50;;
59856;SDS011;45733;52.668;6.860;2022-11-15T09:38:36;0.50;;;0.50;;
59856;SDS011;45733;52.668;6.860;2022-11-15T09:49:51;0.50;;;0.50;;
59856;SDS011;45733;52.668;6.860;2022-11-15T09:54:57;0.50;;;0.50;;
59856;SDS011;45733;52.668;6.860;2022-11-15T09:57:33;0.60;;;0.60;;
59856;SDS011;45733;52.668;6.860;2022-11-15T10:02:54;0.60;;;0.60;;
59856;SDS011;45733;52.668;6.860;2022-11-15T10:05:26;0.50;;;0.50;;
59856;SDS011;45733;52.668;6.860;2022-11-15T10:10:43;0.50;;;0.50;;
59856;SDS011;45733;52.668;6.860;2022-11-15T10:13:33;0.50;;;0.50;;
59856;SDS011;45733;52.668;6.860;2022-11-15T10:21:49;0.60;;;0.60;;
59856;SDS011;45733;52.668;6.860;2022-11-15T10:24:26;0.50;;;0.50;;
59856;SDS011;45733;52.668;6.860;2022-11-15T10:26:56;0.50;;;0.50;;
59856;SDS011;45733;52.668;6.860;2022-11-15T10:29:31;0.50;;;0.50;;
59856;SDS011;45733;52.668;6.860;2022-11-15T10:31:57;0.50;;;0.50;;
59856;SDS011;45733;52.668;6.860;2022-11-15T10:34:23;0.50;;;0.50;;
59856;SDS011;45733;52.668;6.860;2022-11-15T10:36:59;0.50;;;0.50;;
59856;SDS011;45733;52.668;6.860;2022-11-15T10:41:52;0.50;;;0.50;;
59856;SDS011;45733;52.668;6.860;2022-11-15T10:46:46;0.60;;;0.60;;
59856;SDS011;45733;52.668;6.860;2022-11-15T10:49:31;0.50;;;0.50;;
59856;SDS011;45733;52.668;6.860;2022-11-15T10:52:19;0.50;;;0.50;;
59856;SDS011;45733;52.668;6.860;2022-11-15T10:57:29;0.60;;;0.60;;
59856;SDS011;45733;52.668;6.860;2022-11-15T10:59:59;0.50;;;0.50;;
59856;SDS011;45733;52.668;6.860;2022-11-15T11:02:29;0.60;;;0.60;;
59856;SDS011;45733;52.668;6.860;2022-11-15T11:05:01;0.50;;;0.50;;
59856;SDS011;45733;52.668;6.860;2022-11-15T11:07:31;0.50;;;0.50;;
59856;SDS011;45733;52.668;6.860;2022-11-15T11:12:31;0.50;;;0.50;;
59856;SDS011;45733;52.668;6.860;2022-11-15T11:14:59;0.50;;;0.50;;
59856;SDS011;45733;52.668;6.860;2022-11-15T11:25:41;0.50;;;0.50;;
59856;SDS011;45733;52.668;6.860;2022-11-15T11:30:58;0.50;;;0.50;;
59856;SDS011;45733;52.668;6.860;2022-11-15T11:36:55;0.40;;;0.40;;
59856;SDS011;45733;52.668;6.860;2022-11-15T11:39:46;0.50;;;0.50;;
59856;SDS011;45733;52.668;6.860;2022-11-15T11:50:41;0.50;;;0.50;;
59856;SDS011;45733;52.668;6.860;2022-11-15T11:55:58;0.50;;;0.50;;
59856;SDS011;45733;52.668;6.860;2022-11-15T11:58:34;0.50;;;0.50;;
59856;SDS011;45733;52.668;6.860;2022-11-15T12:01:26;0.50;;;0.50;;
59856;SDS011;45733;52.668;6.860;2022-11-15T12:06:30;0.43;;;0.43;;
59856;SDS011;45733;52.668;6.860;2022-11-15T12:09:02;0.40;;;0.40;;
59856;SDS011;45733;52.668;6.860;2022-11-15T12:16:58;0.50;;;0.50;;
59856;SDS011;45733;52.668;6.860;2022-11-15T12:19:24;0.50;;;0.50;;
59856;SDS011;45733;52.668;6.860;2022-11-15T12:24:25;0.40;;;0.40;;
59856;SDS011;45733;52.668;6.860;2022-11-15T12:27:06;0.50;;;0.50;;
59856;SDS011;45733;52.668;6.860;2022-11-15T12:29:58;0.50;;;0.50;;
59856;SDS011;45733;52.668;6.860;2022-11-15T12:32:31;0.40;;;0.40;;
59856;SDS011;45733;52.668;6.860;2022-11-15T12:35:00;0.40;;;0.40;;
59856;SDS011;45733;52.668;6.860;2022-11-15T12:42:42;0.40;;;0.40;;
59856;SDS011;45733;52.668;6.860;2022-11-15T12:47:56;0.50;;;0.50;;
59856;SDS011;45733;52.668;6.860;2022-11-15T13:12:01;0.50;;;0.50;;
59856;SDS011;45733;52.668;6.860;2022-11-15T13:19:43;0.50;;;0.50;;
59856;SDS011;45733;52.668;6.860;2022-11-15T13:22:12;0.50;;;0.50;;
59856;SDS011;45733;52.668;6.860;2022-11-15T13:24:57;0.50;;;0.50;;
59856;SDS011;45733;52.668;6.860;2022-11-15T13:27:23;0.50;;;0.50;;
59856;SDS011;45733;52.668;6.860;2022-11-15T13:29:50;0.50;;;0.50;;
59856;SDS011;45733;52.668;6.860;2022-11-15T13:32:17;0.50;;;0.50;;
59856;SDS011;45733;52.668;6.860;2022-11-15T13:34:47;0.50;;;0.50;;
59856;SDS011;45733;52.668;6.860;2022-11-15T13:39:46;0.50;;;0.50;;
59856;SDS011;45733;52.668;6.860;2022-11-15T13:42:16;0.40;;;0.40;;
59856;SDS011;45733;52.668;6.860;2022-11-15T13:44:59;0.50;;;0.50;;
59856;SDS011;45733;52.668;6.860;2022-11-15T13:47:27;0.50;;;0.50;;
59856;SDS011;45733;52.668;6.860;2022-11-15T13:49:56;0.50;;;0.50;;
59856;SDS011;45733;52.668;6.860;2022-11-15T13:52:23;0.40;;;0.40;;
59856;SDS011;45733;52.668;6.860;2022-11-15T13:55:08;0.50;;;0.50;;
59856;SDS011;45733;52.668;6.860;2022-11-15T14:02:52;0.40;;;0.40;;
59856;SDS011;45733;52.668;6.860;2022-11-15T14:05:21;0.50;;;0.50;;
59856;SDS011;45733;52.668;6.860;2022-11-15T14:07:55;0.40;;;0.40;;
59856;SDS011;45733;52.668;6.860;2022-11-15T14:10:30;0.40;;;0.40;;
59856;SDS011;45733;52.668;6.860;2022-11-15T14:12:58;0.40;;;0.40;;
59856;SDS011;45733;52.668;6.860;2022-11-15T14:15:26;0.50;;;0.50;;
59856;SDS011;45733;52.668;6.860;2022-11-15T14:17:59;0.45;;;0.45;;
59856;SDS011;45733;52.668;6.860;2022-11-15T14:22:53;0.45;;;0.45;;
59856;SDS011;45733;52.668;6.860;2022-11-15T14:30:48;0.50;;;0.50;;
59856;SDS011;45733;52.668;6.860;2022-11-15T14:33:20;0.50;;;0.50;;
59856;SDS011;45733;52.668;6.860;2022-11-15T14:36:05;0.50;;;0.50;;
59856;SDS011;45733;52.668;6.860;2022-11-15T14:38:36;0.50;;;0.50;;
59856;SDS011;45733;52.668;6.860;2022-11-15T14:41:02;0.50;;;0.50;;
59856;SDS011;45733;52.668;6.860;2022-11-15T14:43:28;0.40;;;0.40;;
59856;SDS011;45733;52.668;6.860;2022-11-15T14:45:54;0.50;;;0.50;;
59856;SDS011;45733;52.668;6.860;2022-11-15T14:48:20;0.50;;;0.50;;
59856;SDS011;45733;52.668;6.860;2022-11-15T14:50:47;0.50;;;0.50;;
59856;SDS011;45733;52.668;6.860;2022-11-15T14:53:14;0.50;;;0.50;;
59856;SDS011;45733;52.668;6.860;2022-11-15T14:55:42;0.50;;;0.50;;
59856;SDS011;45733;52.668;6.860;2022-11-15T14:58:08;0.50;;;0.50;;
59856;SDS011;45733;52.668;6.860;2022-11-15T15:00:34;0.50;;;0.50;;
59856;SDS011;45733;52.668;6.860;2022-11-15T15:03:01;0.50;;;0.50;;
59856;SDS011;45733;52.668;6.860;2022-11-15T15:07:59;0.50;;;0.50;;
59856;SDS011;45733;52.668;6.860;2022-11-15T15:10:25;0.50;;;0.50;;
59856;SDS011;45733;52.668;6.860;2022-11-15T15:12:56;0.50;;;0.50;;
59856;SDS011;45733;52.668;6.860;2022-11-15T15:15:25;0.50;;;0.50;;
59856;SDS011;45733;52.668;6.860;2022-11-15T15:17:54;0.50;;;0.50;;
59856;SDS011;45733;52.668;6.860;2022-11-15T15:20:20;0.50;;;0.50;;
59856;SDS011;45733;52.668;6.860;2022-11-15T15:22:46;0.50;;;0.50;;
59856;SDS011;45733;52.668;6.860;2022-11-15T15:25:23;0.50;;;0.50;;
59856;SDS011;45733;52.668;6.860;2022-11-15T15:27:55;0.50;;;0.50;;
59856;SDS011;45733;52.668;6.860;2022-11-15T15:30:21;0.50;;;0.50;;
59856;SDS011;45733;52.668;6.860;2022-11-15T15:32:49;0.50;;;0.50;;
59856;SDS011;45733;52.668;6.860;2022-11-15T15:35:15;0.50;;;0.50;;
59856;SDS011;45733;52.668;6.860;2022-11-15T15:37:42;0.50;;;0.50;;
59856;SDS011;45733;52.668;6.860;2022-11-15T15:40:19;0.50;;;0.50;;
59856;SDS011;45733;52.668;6.860;2022-11-15T15:42:50;0.50;;;0.50;;
59856;SDS011;45733;52.668;6.860;2022-11-15T15:45:16;0.50;;;0.50;;
59856;SDS011;45733;52.668;6.860;2022-11-15T15:47:43;0.50;;;0.50;;
59856;SDS011;45733;52.668;6.860;2022-11-15T15:52:47;0.50;;;0.50;;
59856;SDS011;45733;52.668;6.860;2022-11-15T15:55:14;0.50;;;0.50;;
59856;SDS011;45733;52.668;6.860;2022-11-15T15:57:40;0.60;;;0.60;;
59856;SDS011;45733;52.668;6.860;2022-11-15T16:00:05;0.60;;;0.60;;
59856;SDS011;45733;52.668;6.860;2022-11-15T16:02:32;0.60;;;0.60;;
59856;SDS011;45733;52.668;6.860;2022-11-15T16:04:58;0.50;;;0.50;;
59856;SDS011;45733;52.668;6.860;2022-11-15T16:07:24;0.60;;;0.60;;
59856;SDS011;45733;52.668;6.860;2022-11-15T16:09:50;0.55;;;0.55;;
59856;SDS011;45733;52.668;6.860;2022-11-15T16:12:26;0.50;;;0.50;;
59856;SDS011;45733;52.668;6.860;2022-11-15T16:14:52;0.50;;;0.50;;
59856;SDS011;45733;52.668;6.860;2022-11-15T16:17:19;0.50;;;0.50;;
59856;SDS011;45733;52.668;6.860;2022-11-15T16:19:46;0.60;;;0.60;;
59856;SDS011;45733;52.668;6.860;2022-11-15T16:22:12;0.52;;;0.52;;
59856;SDS011;45733;52.668;6.860;2022-11-15T16:24:38;0.50;;;0.50;;
59856;SDS011;45733;52.668;6.860;2022-11-15T16:27:04;0.50;;;0.50;;
59856;SDS011;45733;52.668;6.860;2022-11-15T16:29:30;0.50;;;0.50;;
59856;SDS011;45733;52.668;6.860;2022-11-15T16:31:55;0.50;;;0.50;;
59856;SDS011;45733;52.668;6.860;2022-11-15T16:34:21;0.50;;;0.50;;
59856;SDS011;45733;52.668;6.860;2022-11-15T16:36:47;0.50;;;0.50;;
59856;SDS011;45733;52.668;6.860;2022-11-15T16:39:14;0.50;;;0.50;;
59856;SDS011;45733;52.668;6.860;2022-11-15T16:41:42;0.57;;;0.57;;
59856;SDS011;45733;52.668;6.860;2022-11-15T16:44:12;0.50;;;0.50;;
59856;SDS011;45733;52.668;6.860;2022-11-15T16:46:39;0.50;;;0.50;;
59856;SDS011;45733;52.668;6.860;2022-11-15T16:49:13;0.50;;;0.50;;
59856;SDS011;45733;52.668;6.860;2022-11-15T16:51:40;0.60;;;0.60;;
59856;SDS011;45733;52.668;6.860;2022-11-15T16:54:09;0.60;;;0.60;;
59856;SDS011;45733;52.668;6.860;2022-11-15T16:56:35;0.60;;;0.60;;
59856;SDS011;45733;52.668;6.860;2022-11-15T16:59:00;0.50;;;0.50;;
59856;SDS011;45733;52.668;6.860;2022-11-15T17:01:27;0.60;;;0.60;;
59856;SDS011;45733;52.668;6.860;2022-11-15T17:03:57;0.50;;;0.50;;
59856;SDS011;45733;52.668;6.860;2022-11-15T17:06:24;0.60;;;0.60;;
59856;SDS011;45733;52.668;6.860;2022-11-15T17:08:51;0.52;;;0.52;;
59856;SDS011;45733;52.668;6.860;2022-11-15T17:11:18;0.50;;;0.50;;
59856;SDS011;45733;52.668;6.860;2022-11-15T17:13:46;0.60;;;0.60;;
59856;SDS011;45733;52.668;6.860;2022-11-15T17:16:14;0.60;;;0.60;;
59856;SDS011;45733;52.668;6.860;2022-11-15T17:18:41;0.60;;;0.60;;
59856;SDS011;45733;52.668;6.860;2022-11-15T17:21:14;0.60;;;0.60;;
59856;SDS011;45733;52.668;6.860;2022-11-15T17:23:41;0.60;;;0.60;;
59856;SDS011;45733;52.668;6.860;2022-11-15T17:26:08;0.60;;;0.60;;
59856;SDS011;45733;52.668;6.860;2022-11-15T17:28:35;0.60;;;0.60;;
59856;SDS011;45733;52.668;6.860;2022-11-15T17:31:04;0.60;;;0.60;;
59856;SDS011;45733;52.668;6.860;2022-11-15T17:33:35;0.50;;;0.50;;
59856;SDS011;45733;52.668;6.860;2022-11-15T17:36:02;0.60;;;0.60;;
59856;SDS011;45733;52.668;6.860;2022-11-15T17:38:30;0.60;;;0.60;;
59856;SDS011;45733;52.668;6.860;2022-11-15T17:43:30;0.60;;;0.60;;
59856;SDS011;45733;52.668;6.860;2022-11-15T17:45:57;0.60;;;0.60;;